Latest Weather Observations for Perth

IDW60901

Issued at 12:21 pm WST Wednesday 4 March 2015 (issued every 10 minutes, with the page automatically refreshed every 10 minutes)

About weather observations | Map of Perth area stations | Latest observations for Perth area | Other Formats
Station Details ID: 009225 Name: PERTH METRO Lat: -31.92 Lon: 115.87 Height: 24.9 m
Data from the previous 72 hours. | See also: Recent months at Perth
Date/Time
WST
Tmp

°C
App
Tmp
°C
Dew
Point
°C
Rel
Hum
%
Delta-T

°C
Wind Press
QNH
hPa
Press
MSL
hPa
Rain
since
9 am
mm
Dir
 
Spd
km/h
Gust
km/h
Spd
kts
Gust
kts
04/12:00pm 29.2 28.3 13.8 39 9.2 ESE 11 20 6 11 1020.6 1020.5 0.0
04/11:30am 28.2 27.5 14.4 42 8.3 E 11 17 6 9 1021.1 1021.0 0.0
04/11:00am 27.3 26.5 15.0 47 7.4 ENE 13 20 7 11 1021.4 1021.3 0.0
04/10:30am 26.0 25.0 14.5 49 6.9 ENE 13 24 7 13 1021.9 1021.8 0.0
04/10:00am 24.9 23.8 14.4 52 6.2 ESE 13 22 7 12 1022.0 1021.9 0.0
04/09:30am 23.2 21.6 13.9 56 5.4 ESE 15 24 8 13 1022.2 1022.1 0.0
04/09:00am 22.4 21.4 14.5 61 4.6 ESE 13 24 7 13 1022.3 1022.2 0.0
04/08:30am 21.3 20.3 14.5 65 4.0 E 13 26 7 14 1022.4 1022.3 0.0
04/08:00am 20.2 19.0 13.9 67 3.6 E 13 24 7 13 1022.2 1022.1 0.0
04/07:30am 19.4 18.1 13.8 70 3.2 E 13 22 7 12 1021.9 1021.8 0.0
04/07:00am 18.4 17.1 13.7 74 2.7 E 13 24 7 13 1021.7 1021.6 0.0
04/06:30am 17.9 16.5 13.4 75 2.5 ESE 13 20 7 11 1021.4 1021.3 0.0
04/06:00am 17.7 17.0 13.2 75 2.5 ENE 9 15 5 8 1021.0 1020.9 0.0
04/05:30am 17.9 16.4 13.2 74 2.6 E 13 24 7 13 1020.5 1020.4 0.0
04/05:00am 18.3 16.8 13.2 72 2.9 E 13 24 7 13 1020.2 1020.1 0.0
04/04:30am 18.7 17.6 13.1 70 3.2 E 11 22 6 12 1019.7 1019.6 0.0
04/04:00am 19.3 17.8 13.0 67 3.6 E 13 22 7 12 1019.7 1019.6 0.0
04/03:30am 19.9 18.5 13.4 66 3.7 ESE 13 22 7 12 1019.4 1019.3 0.0
04/03:00am 19.6 19.0 13.5 68 3.5 E 9 13 5 7 1019.3 1019.2 0.0
04/02:30am 20.4 19.8 13.4 64 4.0 E 9 17 5 9 1019.2 1019.1 0.0
04/02:00am 20.7 19.7 13.4 63 4.2 E 11 17 6 9 1019.2 1019.1 0.0
04/01:30am 21.1 20.4 13.3 61 4.5 ESE 9 15 5 8 1019.4 1019.3 0.0
04/01:00am 21.7 20.8 13.6 60 4.7 ESE 11 24 6 13 1019.5 1019.4 0.0
04/12:30am 22.0 21.2 13.9 60 4.7 SE 11 24 6 13 1019.6 1019.5 0.0
04/12:00am 22.6 21.4 13.9 58 5.1 ESE 13 22 7 12 1019.4 1019.3 0.0
 
Date/Time
WST
Tmp

°C
App
Tmp
°C
Dew
Point
°C
Rel
Hum
%
Delta-T

°C
Wind Press
QNH
hPa
Press
MSL
hPa
Rain
since
9 am
mm
Dir
 
Spd
km/h
Gust
km/h
Spd
kts
Gust
kts
03/11:30pm 23.1 21.0 13.6 55 5.5 ESE 17 28 9 15 1019.3 1019.2 0.0
03/11:00pm 23.9 22.1 13.2 51 6.2 ESE 15 32 8 17 1019.1 1019.0 0.0
03/10:30pm 25.0 22.5 12.2 44 7.3 ESE 17 28 9 15 1019.0 1018.9 0.0
03/10:00pm 25.6 23.8 11.0 40 8.2 ESE 11 24 6 13 1018.7 1018.6 0.0
03/09:30pm 25.5 24.1 10.9 40 8.2 ESE 9 17 5 9 1018.7 1018.6 0.0
03/09:00pm 25.8 24.5 11.2 40 8.2 ESE 9 20 5 11 1018.5 1018.4 0.0
03/08:30pm 22.9 24.1 15.0 61 4.7 SE 2 9 1 5 1018.1 1018.0 0.0
03/08:00pm 23.5 25.9 17.0 67 4.0 CALM 0 0 0 0 1017.7 1017.6 0.0
03/07:30pm 24.6 25.8 16.8 62 4.8 SW 6 7 3 4 1017.2 1017.1 0.0
03/07:00pm 25.2 26.4 16.9 60 5.1 SSW 6 9 3 5 1016.9 1016.8 0.0
03/06:30pm 26.0 26.0 16.3 55 6.0 SW 11 15 6 8 1016.6 1016.5 0.0
03/06:00pm 26.9 26.4 15.9 51 6.7 SW 13 20 7 11 1016.5 1016.4 0.0
03/05:30pm 27.4 26.1 15.7 48 7.2 SSW 17 26 9 14 1016.4 1016.3 0.0
03/05:00pm 28.2 27.0 15.1 44 8.0 SSW 15 28 8 15 1016.5 1016.4 0.0
03/04:30pm 28.1 26.8 15.7 46 7.6 SW 17 30 9 16 1016.6 1016.5 0.0
03/04:00pm 27.9 25.9 15.5 46 7.6 SSW 20 35 11 19 1016.6 1016.5 0.0
03/03:30pm 28.5 27.2 15.8 46 7.8 SSW 17 28 9 15 1016.8 1016.7 0.0
03/03:00pm 29.3 28.0 15.8 44 8.3 SSW 17 28 9 15 1016.8 1016.7 0.0
03/02:30pm 27.9 26.6 15.9 48 7.4 SSW 17 26 9 14 1017.1 1017.0 0.0
03/02:00pm 29.8 28.6 15.1 40 9.0 SSW 15 20 8 11 1017.4 1017.3 0.0
03/01:30pm 28.4 28.1 14.3 42 8.5 SSE 9 15 5 8 1017.8 1017.7 0.0
03/01:00pm 28.9 28.6 15.4 44 8.3 SSE 11 17 6 9 1018.0 1017.9 0.0
03/12:30pm 28.5 28.3 14.7 43 8.4 E 9 19 5 10 1018.6 1018.5 0.0
03/12:00pm 27.5 27.1 15.2 47 7.5 ESE 11 20 6 11 1018.9 1018.8 0.0
03/11:30am 27.0 26.8 14.7 47 7.4 ESE 9 19 5 10 1019.3 1019.2 0.0
03/11:00am 26.4 26.0 15.1 49 6.8 ESE 11 19 6 10 1019.8 1019.7 0.0
03/10:30am 25.5 24.7 15.2 53 6.2 ESE 13 20 7 11 1019.9 1019.8 0.0
03/10:00am 24.4 23.4 14.5 54 5.9 ESE 13 24 7 13 1020.2 1020.1 0.0
03/09:30am 23.9 23.0 14.9 57 5.4 E 13 24 7 13 1020.2 1020.1 0.0
03/09:00am 22.4 20.5 14.3 60 4.7 E 17 24 9 13 1020.4 1020.3 0.0
03/08:30am 21.7 21.0 14.4 63 4.3 ESE 11 20 6 11 1020.3 1020.2 0.0
03/08:00am 21.0 20.4 14.6 67 3.7 ESE 11 19 6 10 1020.3 1020.2 0.0
03/07:30am 19.6 19.1 13.8 69 3.3 SE 9 22 5 12 1020.3 1020.2 0.0
03/07:00am 18.4 17.4 13.3 72 2.9 ESE 11 26 6 14 1019.9 1019.8 0.0
03/06:30am 17.7 16.9 12.8 73 2.7 SE 9 15 5 8 1019.7 1019.6 0.0
03/06:00am 17.8 16.6 12.9 73 2.7 SE 11 19 6 10 1019.5 1019.4 0.0
03/05:30am 17.6 17.2 12.9 74 2.6 ESE 7 15 4 8 1019.4 1019.3 0.0
03/05:00am 17.7 16.9 12.8 73 2.7 ESE 9 20 5 11 1019.3 1019.2 0.0
03/04:30am 17.7 16.9 12.8 73 2.7 ESE 9 19 5 10 1019.2 1019.1 0.0
03/04:00am 17.9 16.7 12.8 72 2.8 ESE 11 19 6 10 1019.0 1018.9 0.0
03/03:30am 18.2 17.0 12.9 71 3.0 ESE 11 20 6 11 1018.8 1018.7 0.0
03/03:00am 18.3 17.2 13.2 72 2.9 ESE 11 20 6 11 1018.5 1018.4 0.0
03/02:30am 18.6 17.4 12.8 69 3.3 ESE 11 22 6 12 1018.5 1018.4 0.0
03/02:00am 18.5 17.3 12.9 70 3.1 ESE 11 19 6 10 1018.5 1018.4 0.0
03/01:30am 18.8 17.6 12.8 68 3.4 SE 11 20 6 11 1018.6 1018.5 0.0
03/01:00am 19.0 17.4 12.7 67 3.5 ESE 13 24 7 13 1018.6 1018.5 0.0
03/12:30am 19.4 17.8 12.9 66 3.7 ESE 13 22 7 12 1018.5 1018.4 0.0
03/12:00am 19.6 18.5 13.1 66 3.7 ESE 11 20 6 11 1018.4 1018.3 0.0
 
Date/Time
WST
Tmp

°C
App
Tmp
°C
Dew
Point
°C
Rel
Hum
%
Delta-T

°C
Wind Press
QNH
hPa
Press
MSL
hPa
Rain
since
9 am
mm
Dir
 
Spd
km/h
Gust
km/h
Spd
kts
Gust
kts
02/11:30pm 20.1 18.2 13.1 64 4.0 SE 15 28 8 15 1018.4 1018.3 0.0
02/11:00pm 20.5 19.0 13.0 62 4.3 ESE 13 28 7 15 1018.2 1018.1 0.0
02/10:30pm 20.8 19.3 13.0 61 4.4 SE 13 30 7 16 1017.9 1017.8 0.0
02/10:00pm 21.3 18.4 13.0 59 4.7 SE 20 35 11 19 1017.9 1017.8 0.0
02/09:30pm 21.7 20.9 12.8 57 5.1 SE 9 15 5 8 1017.6 1017.5 0.0
02/09:00pm 21.9 21.0 12.7 56 5.2 ESE 9 17 5 9 1017.3 1017.2 0.0
02/08:30pm 22.1 21.2 12.6 55 5.4 SE 9 17 5 9 1016.9 1016.8 0.0
02/08:00pm 22.7 20.8 12.9 54 5.6 SE 15 24 8 13 1016.4 1016.3 0.0
02/07:30pm 23.0 21.1 12.9 53 5.8 SE 15 26 8 14 1015.9 1015.8 0.0
02/07:00pm 23.8 22.2 12.8 50 6.3 SE 13 24 7 13 1015.2 1015.1 0.0
02/06:30pm 24.5 22.9 12.8 48 6.8 ESE 13 24 7 13 1014.7 1014.5 0.0
02/06:00pm 25.1 22.7 12.7 46 7.2 SE 17 32 9 17 1014.2 1014.0 0.0
02/05:30pm 26.0 23.6 12.5 43 7.8 SE 17 32 9 17 1014.1 1013.9 0.0
02/05:00pm 27.3 25.4 12.9 41 8.4 SE 15 28 8 15 1013.8 1013.6 0.0
02/04:30pm 27.2 24.7 12.4 40 8.6 ESE 17 30 9 16 1013.7 1013.5 0.0
02/04:00pm 27.3 25.0 12.9 41 8.4 SE 17 28 9 15 1013.7 1013.5 0.0
02/03:30pm 27.2 25.4 12.0 38 8.8 ESE 13 26 7 14 1013.7 1013.5 0.0
02/03:00pm 27.1 25.0 12.3 39 8.6 SE 15 28 8 15 1013.9 1013.7 0.0
02/02:30pm 27.8 27.0 13.0 40 8.7 ESE 9 20 5 11 1014.0 1013.8 0.0
02/02:00pm 26.9 25.0 12.9 42 8.2 SE 15 26 8 14 1014.3 1014.1 0.0
02/01:30pm 26.8 24.6 12.1 40 8.5 E 15 28 8 15 1014.4 1014.2 0.0
02/01:00pm 26.7 24.6 12.4 41 8.3 E 15 32 8 17 1014.2 1014.0 0.0
02/12:30pm 26.5 24.8 13.6 45 7.6 ESE 15 30 8 16 1014.3 1014.1 0.0
02/12:00pm 25.8 23.8 12.6 44 7.6 ESE 15 26 8 14 1014.5 1014.3 0.0
02/11:30am 25.9 24.1 13.4 46 7.3 ESE 15 28 8 15 1014.8 1014.6 0.0
02/11:00am 25.5 23.8 13.7 48 6.9 ESE 15 32 8 17 1014.8 1014.6 0.0
02/10:30am 24.8 22.6 14.3 52 6.2 SE 19 33 10 18 1015.0 1014.8 0.0
02/10:00am 23.3 20.7 13.2 53 5.8 SSE 19 28 10 15 1015.0 1014.8 0.0
02/09:30am 22.8 20.0 13.3 55 5.5 SSE 20 35 11 19 1015.0 1014.8 0.0
02/09:00am 22.6 20.5 13.7 57 5.2 SE 17 28 9 15 1014.8 1014.6 0.0
02/08:30am 21.5 19.4 13.7 61 4.5 SSE 17 24 9 13 1014.7 1014.5 0.0
02/08:00am 20.6 19.2 13.3 63 4.2 SE 13 20 7 11 1014.5 1014.3 0.0
02/07:30am 20.2 18.4 13.2 64 4.0 SE 15 24 8 13 1014.3 1014.1 0.0
02/07:00am 19.8 17.5 13.0 65 3.9 SE 17 30 9 16 1013.9 1013.7 0.0
02/06:30am 19.8 17.5 13.0 65 3.9 SE 17 28 9 15 1013.7 1013.5 0.0
02/06:00am 19.7 18.1 12.9 65 3.8 SE 13 24 7 13 1013.6 1013.4 0.0
02/05:30am 19.7 17.8 12.9 65 3.8 SSE 15 26 8 14 1013.1 1012.9 0.0
02/05:00am 19.6 18.1 13.1 66 3.7 SSE 13 20 7 11 1012.8 1012.6 0.0
02/04:30am 19.8 18.4 13.3 66 3.7 SE 13 22 7 12 1012.5 1012.3 0.0
02/04:00am 19.8 18.4 13.5 67 3.6 SE 13 20 7 11 1012.1 1012.0 0.0
02/03:30am 19.7 18.5 13.9 69 3.3 SE 13 26 7 14 1011.7 1011.6 0.0
02/03:00am 19.7 19.3 14.1 70 3.2 SE 9 26 5 14 1011.5 1011.4 0.0
02/02:30am 20.3 19.1 14.0 67 3.6 ESE 13 24 7 13 1011.6 1011.5 0.0
02/02:00am 20.6 18.6 14.0 66 3.8 SE 17 30 9 16 1011.4 1011.3 0.0
02/01:30am 21.2 18.9 14.1 64 4.1 SE 19 33 10 18 1011.3 1011.2 0.0
02/01:00am 21.7 19.7 13.9 61 4.5 SE 17 32 9 17 1011.3 1011.2 0.0
02/12:30am 22.0 19.6 13.9 60 4.7 SE 19 30 10 16 1011.4 1011.3 0.0
02/12:00am 22.5 20.6 14.1 59 4.9 SE 17 35 9 19 1011.5 1011.4 0.0
 
Date/Time
WST
Tmp

°C
App
Tmp
°C
Dew
Point
°C
Rel
Hum
%
Delta-T

°C
Wind Press
QNH
hPa
Press
MSL
hPa
Rain
since
9 am
mm
Dir
 
Spd
km/h
Gust
km/h
Spd
kts
Gust
kts
01/11:30pm 23.2 20.8 13.9 56 5.4 SE 19 33 10 18 1011.2 1011.1 0.0
01/11:00pm 23.8 21.4 13.9 54 5.8 SE 19 33 10 18 1010.7 1010.6 0.0
01/10:30pm 24.6 22.8 14.4 53 6.1 SE 17 28 9 15 1010.4 1010.3 0.0
01/10:00pm 25.4 24.7 15.4 54 6.1 E 13 24 7 13 1010.3 1010.2 0.0
01/09:30pm 24.8 25.1 16.0 58 5.4 E 9 19 5 10 1009.6 1009.5 0.0
01/09:00pm 23.5 24.4 16.5 65 4.3 SE 7 11 4 6 1009.1 1009.0 0.0
01/08:30pm 23.7 25.0 17.0 66 4.1 SSE 6 9 3 5 1008.6 1008.5 0.0
01/08:00pm 24.1 25.5 17.4 66 4.2 SSW 6 9 3 5 1008.2 1008.1 0.0
01/07:30pm 24.2 24.2 17.2 65 4.3 SW 13 20 7 11 1007.6 1007.5 0.0
01/07:00pm 24.5 24.0 17.0 63 4.6 SSW 15 26 8 14 1007.5 1007.4 0.0
01/06:30pm 24.3 23.5 17.1 64 4.5 SSW 17 28 9 15 1007.4 1007.3 0.0
01/06:00pm 24.2 22.8 16.5 62 4.7 SSW 19 35 10 19 1007.5 1007.4 0.0
01/05:30pm 24.7 23.2 16.2 59 5.2 SW 19 35 10 19 1007.4 1007.3 0.0
01/05:00pm 24.8 22.8 15.4 56 5.7 SSW 20 33 11 18 1007.4 1007.3 0.0
01/04:30pm 25.4 23.5 15.1 53 6.2 SW 19 32 10 17 1007.6 1007.5 0.0
01/04:00pm 26.2 24.1 15.3 51 6.6 SSW 20 37 11 20 1007.6 1007.5 0.0
01/03:30pm 27.9 25.7 14.5 44 8.1 SSW 19 37 10 20 1007.5 1007.4 0.0
01/03:00pm 28.3 25.8 13.4 40 8.9 SSW 19 28 10 15 1007.4 1007.3 0.0
01/02:30pm 29.9 27.5 12.8 35 10.1 SSW 17 32 9 17 1007.5 1007.4 0.0
01/02:00pm 29.4 27.4 12.8 36 9.8 SW 15 24 8 13 1007.7 1007.6 0.0
01/01:30pm 30.5 30.0 15.0 39 9.5 WSW 11 24 6 13 1008.1 1008.0 0.0
01/01:00pm 30.1 30.3 14.6 39 9.4 N 7 11 4 6 1008.6 1008.5 0.0
01/12:30pm 29.2 29.8 15.3 42 8.5 NNE 6 11 3 6 1009.1 1009.0 0.0

Latest Capital City Observations: Canberra | Sydney | Melbourne | Brisbane | Adelaide | Perth | Hobart | Darwin

Other Formats:

Comma delimited format used in spreadsheet applications
http://www.bom.gov.au/fwo/IDW60901/IDW60901.94608.axf

JavaScript Object Notation format (JSON) in row-major order
http://www.bom.gov.au/fwo/IDW60901/IDW60901.94608.json